Time;durP1;ratioP1;P1;durP2;ratioP2;P2;SDS_P1;SDS_P2;PMS_P1;PMS_P2;Temp;Humidity;BMP_temperature;BMP_pressure;BME280_temperature;BME280_humidity;BME280_pressure;Samples;Min_cycle;Max_cycle;Signal;HPM_P1;HPM_P2
2022/06/20 00:01:10;;;;;;;1.70;1.08;;;;;;;14.63;72.81;101520.44;4864094;29;20037;-80
2022/06/20 00:03:39;;;;;;;5.18;1.38;;;;;;;14.63;73.13;101515.19;4869474;29;20041;-80
2022/06/20 00:06:05;;;;;;;2.38;1.00;;;;;;;14.64;73.08;101518.66;4879364;29;20339;-81
2022/06/20 00:08:30;;;;;;;4.03;1.10;;;;;;;14.64;72.91;101510.75;4881476;29;20037;-80
2022/06/20 00:10:56;;;;;;;3.55;1.05;;;;;;;14.63;72.99;101507.28;4880757;29;20028;-80
2022/06/20 00:13:29;;;;;;;1.88;0.90;;;;;;;14.64;72.98;101508.97;4886993;29;20041;-80
2022/06/20 00:16:00;;;;;;;3.45;1.10;;;;;;;14.64;72.97;101516.88;4900777;29;20051;-80
2022/06/20 00:18:26;;;;;;;1.42;0.80;;;;;;;14.65;72.78;101525.66;4901200;29;20029;-80
2022/06/20 00:20:52;;;;;;;2.95;1.08;;;;;;;14.65;72.98;101536.22;4883775;29;20255;-80
2022/06/20 00:23:18;;;;;;;3.97;1.10;;;;;;;14.65;72.74;101539.69;4891000;29;20044;-80
2022/06/20 00:25:43;;;;;;;2.95;1.15;;;;;;;14.63;73.04;101554.72;4866292;29;20056;-80
2022/06/20 00:28:10;;;;;;;2.13;1.10;;;;;;;14.64;72.71;101556.41;4882193;29;20048;-80
2022/06/20 00:30:36;;;;;;;2.33;0.88;;;;;;;14.64;72.90;101553.78;4887903;29;20116;-81
2022/06/20 00:33:02;;;;;;;4.07;1.00;;;;;;;14.64;72.86;101547.66;4891290;29;20250;-80
2022/06/20 00:35:28;;;;;;;2.33;0.90;;;;;;;14.65;72.68;101557.28;4867720;29;20240;-80
2022/06/20 00:37:56;;;;;;;7.38;1.20;;;;;;;14.64;72.45;101553.78;4857294;29;20137;-80
2022/06/20 00:40:45;;;;;;;;;;;;;;;14.65;72.48;101547.59;4885786;29;20072;-81
2022/06/20 00:43:15;;;;;;;4.90;1.73;;;;;;;14.65;72.70;101542.31;4900776;29;19929;-80
2022/06/20 00:45:44;;;;;;;2.75;1.20;;;;;;;14.65;72.37;101536.22;4882749;29;20034;-80
2022/06/20 00:48:16;;;;;;;2.30;0.98;;;;;;;14.64;72.32;101539.75;4883803;29;20039;-80
2022/06/20 00:50:45;;;;;;;4.30;1.10;;;;;;;14.63;72.27;101543.34;4890352;29;20029;-80
2022/06/20 00:53:17;;;;;;;2.63;0.73;;;;;;;14.63;72.41;101543.34;4882025;29;20041;-80
2022/06/20 00:55:53;;;;;;;2.30;1.10;;;;;;;14.62;72.39;101550.38;4883139;29;20040;-80
2022/06/20 00:58:38;;;;;;;3.90;1.27;;;;;;;14.64;72.40;101563.47;4881982;29;20113;-82
2022/06/20 01:01:08;;;;;;;2.50;0.90;;;;;;;14.62;72.51;101568.81;4882582;29;20028;-81
2022/06/20 01:03:39;;;;;;;2.33;1.00;;;;;;;14.61;72.24;101580.31;4882087;29;20045;-81
2022/06/20 01:06:11;;;;;;;2.28;1.10;;;;;;;14.60;72.28;101594.41;4881931;29;20100;-80
2022/06/20 01:08:42;;;;;;;5.82;1.10;;;;;;;14.59;72.34;101585.63;4863366;29;20030;-80
2022/06/20 01:11:16;;;;;;;3.00;1.10;;;;;;;14.58;72.71;101605.00;4863044;29;20101;-80
2022/06/20 01:13:42;;;;;;;3.22;1.08;;;;;;;14.57;72.37;101619.13;4862790;29;20053;-80
2022/06/20 01:16:14;;;;;;;1.90;1.10;;;;;;;14.58;72.43;101630.53;4884119;29;20259;-81
2022/06/20 01:18:43;;;;;;;2.13;1.20;;;;;;;14.57;72.66;101623.50;4897499;29;20104;-80
2022/06/20 01:21:18;;;;;;;4.18;1.00;;;;;;;14.56;72.47;101627.06;4899918;29;20028;-80
2022/06/20 01:24:00;;;;;;;1.98;1.05;;;;;;;14.55;72.56;101614.78;4900452;29;20060;-80
2022/06/20 01:26:44;;;;;;;2.70;1.45;;;;;;;14.55;72.66;101622.72;4900417;29;20348;-81
2022/06/20 01:29:11;;;;;;;4.95;1.08;;;;;;;14.54;72.59;101616.59;4898156;29;20108;-81
2022/06/20 01:31:45;;;;;;;4.70;1.20;;;;;;;14.54;73.01;101610.47;4903679;29;20040;-81
2022/06/20 01:34:16;;;;;;;2.70;1.30;;;;;;;14.54;73.03;101610.47;4903919;29;20074;-81
2022/06/20 01:39:28;;;;;;;4.03;1.10;;;;;;;14.52;73.01;101602.63;4886202;29;20415;-80
2022/06/20 01:44:41;;;;;;;2.75;1.02;;;;;;;14.51;72.88;101573.69;4870855;29;20081;-80
2022/06/20 01:47:07;;;;;;;3.55;1.05;;;;;;;14.52;73.19;101576.28;4883718;29;20036;-80
2022/06/20 01:49:35;;;;;;;2.35;1.45;;;;;;;14.51;73.25;101569.28;4885944;29;20165;-81
2022/06/20 01:52:08;;;;;;;3.95;1.42;;;;;;;14.52;73.20;101578.06;4883365;29;20029;-80
2022/06/20 01:54:42;;;;;;;4.50;1.40;;;;;;;14.52;73.20;101570.16;4868214;29;20347;-80
2022/06/20 01:57:10;;;;;;;3.08;1.20;;;;;;;14.52;73.22;101578.91;4884740;29;20052;-81
2022/06/20 01:59:46;;;;;;;2.33;1.08;;;;;;;14.53;73.18;101569.22;4896435;29;20422;-81
2022/06/20 02:02:12;;;;;;;2.97;1.48;;;;;;;14.53;73.37;101572.69;4884784;29;20029;-80
2022/06/20 02:04:38;;;;;;;4.97;1.40;;;;;;;14.52;73.77;101568.34;4868221;29;20046;-80
2022/06/20 02:07:08;;;;;;;3.42;1.58;;;;;;;14.52;73.47;101562.25;4868046;29;20060;-79
2022/06/20 02:09:34;;;;;;;1.98;0.93;;;;;;;14.51;73.48;101552.63;4883445;29;20335;-79
2022/06/20 02:12:01;;;;;;;3.92;1.42;;;;;;;14.49;73.83;101551.84;4896656;29;20324;-79
2022/06/20 02:14:42;;;;;;;4.22;1.58;;;;;;;14.49;73.65;101554.47;4886429;29;20063;-80
2022/06/20 02:17:20;;;;;;;4.60;1.60;;;;;;;14.49;73.56;101565.00;4883803;29;21630;-80
2022/06/20 02:19:49;;;;;;;3.23;1.17;;;;;;;14.49;73.82;101557.09;4884690;29;20037;-79
2022/06/20 02:22:18;;;;;;;1.38;1.00;;;;;;;14.47;73.64;101551.91;4868760;29;20025;-79
2022/06/20 02:24:46;;;;;;;;;;;;;;;14.48;73.72;101563.28;4885087;29;20060;-79
2022/06/20 02:27:27;;;;;;;4.03;1.40;;;;;;;14.47;73.62;101562.44;4884008;29;19908;-80
2022/06/20 02:29:54;;;;;;;3.80;1.30;;;;;;;14.44;73.76;101554.66;4883973;29;20051;-79
2022/06/20 02:32:26;;;;;;;2.85;1.42;;;;;;;14.44;73.49;101562.56;4858389;29;20036;-80
2022/06/20 02:34:52;;;;;;;7.80;1.60;;;;;;;14.42;73.29;101561.78;4894942;29;20359;-80
2022/06/20 02:37:23;;;;;;;2.60;0.85;;;;;;;14.43;73.33;101552.13;4867430;29;20041;-79
2022/06/20 02:39:53;;;;;;;2.38;1.15;;;;;;;14.43;73.37;101557.41;4867992;29;20068;-80
2022/06/20 02:42:27;;;;;;;6.13;1.65;;;;;;;14.43;72.99;101562.66;4869378;29;20025;-80
2022/06/20 02:44:55;;;;;;;3.33;1.20;;;;;;;14.42;72.91;101556.50;4884330;29;20039;-79
2022/06/20 02:47:23;;;;;;;3.83;1.30;;;;;;;14.43;73.17;101565.31;4870706;29;20044;-79
2022/06/20 02:49:52;;;;;;;3.50;1.50;;;;;;;14.41;72.94;101557.47;4902307;29;20048;-79
2022/06/20 02:52:23;;;;;;;4.95;1.15;;;;;;;14.40;72.81;101555.72;4886402;29;20048;-80
2022/06/20 02:54:51;;;;;;;2.20;0.88;;;;;;;14.39;72.64;101546.97;4900239;29;20048;-80
2022/06/20 02:57:25;;;;;;;3.10;0.80;;;;;;;14.39;72.52;101543.50;4886198;29;20332;-79
2022/06/20 02:59:54;;;;;;;3.50;0.88;;;;;;;14.38;72.96;101541.78;4903188;29;20020;-80
2022/06/20 03:02:25;;;;;;;6.30;1.30;;;;;;;14.38;72.81;101545.25;4903348;29;20060;-79
2022/06/20 03:04:50;;;;;;;1.63;0.85;;;;;;;14.36;72.51;101533.94;4902723;29;20046;-80
2022/06/20 03:07:23;;;;;;;2.78;1.00;;;;;;;14.36;72.55;101533.09;4886481;29;20103;-79
2022/06/20 03:10:14;;;;;;;1.80;1.00;;;;;;;14.35;72.54;101539.28;4903145;29;20126;-79
2022/06/20 03:12:40;;;;;;;4.18;1.15;;;;;;;14.35;72.36;101549.81;4878236;29;20178;-79
2022/06/20 03:15:06;;;;;;;2.03;0.88;;;;;;;14.33;72.56;101544.59;4843457;29;20089;-79
2022/06/20 03:17:32;;;;;;;3.67;1.20;;;;;;;14.33;72.48;101543.75;4884021;29;20104;-79
2022/06/20 03:20:03;;;;;;;2.22;1.00;;;;;;;14.33;72.57;101543.75;4851958;29;20045;-80
2022/06/20 03:22:35;;;;;;;4.13;1.13;;;;;;;14.33;72.28;101543.75;4870395;29;20081;-79
2022/06/20 03:25:02;;;;;;;4.50;0.85;;;;;;;14.31;72.31;101535.06;4886999;29;20043;-79
2022/06/20 03:27:30;;;;;;;2.38;0.93;;;;;;;14.31;72.06;101542.97;4876869;29;20032;-79
2022/06/20 03:30:01;;;;;;;1.15;0.80;;;;;;;14.31;72.38;101535.91;4902395;29;20364;-80
2022/06/20 03:32:27;;;;;;;3.17;0.88;;;;;;;14.29;72.05;101532.50;4902524;29;20382;-80
2022/06/20 03:34:53;;;;;;;2.92;0.80;;;;;;;14.29;72.07;101534.28;4900821;29;20041;-80
2022/06/20 03:37:20;;;;;;;3.20;1.02;;;;;;;14.28;72.26;101535.19;4894424;29;20392;-80
2022/06/20 03:39:48;;;;;;;1.40;0.80;;;;;;;14.27;72.43;101533.50;4867453;29;20100;-79
2022/06/20 03:42:14;;;;;;;2.47;0.95;;;;;;;14.26;72.33;101532.66;4883856;29;20041;-79
2022/06/20 03:44:45;;;;;;;1.92;0.80;;;;;;;14.26;72.04;101534.41;4883395;29;20041;-79
2022/06/20 03:47:21;;;;;;;1.38;0.88;;;;;;;14.26;72.01;101534.41;4884371;29;20073;-79
2022/06/20 03:49:55;;;;;;;2.95;0.80;;;;;;;14.25;72.24;101533.56;4883713;29;20084;-79
2022/06/20 03:52:24;;;;;;;1.67;1.00;;;;;;;14.26;72.39;101542.31;4883003;29;20361;-80
2022/06/20 03:54:54;;;;;;;2.13;1.10;;;;;;;14.22;72.29;101536.34;4883593;29;20037;-80
2022/06/20 03:57:34;;;;;;;2.33;0.80;;;;;;;14.21;72.37;101546.03;4882972;29;20049;-79
2022/06/20 04:00:15;;;;;;;1.23;1.00;;;;;;;14.21;72.38;101553.09;4881631;29;20033;-79
2022/06/20 04:02:54;;;;;;;3.15;1.33;;;;;;;14.22;72.45;101560.03;4895310;29;20040;-79
2022/06/20 04:05:26;;;;;;;2.65;1.23;;;;;;;14.21;72.53;101556.56;4897800;29;20289;-80
2022/06/20 04:07:54;;;;;;;3.15;1.23;;;;;;;14.20;72.61;101562.75;4898431;29;20040;-79
2022/06/20 04:13:20;;;;;;;3.15;1.02;;;;;;;14.21;72.28;101555.72;4899520;29;20063;-79
2022/06/20 04:15:50;;;;;;;2.28;1.05;;;;;;;14.20;72.40;101552.22;4899531;29;20108;-79
2022/06/20 04:18:28;;;;;;;1.70;1.08;;;;;;;14.20;72.49;101554.00;4898881;29;20083;-79
2022/06/20 04:21:19;;;;;;;3.77;1.10;;;;;;;14.20;72.30;101551.34;4898908;29;20038;-80
2022/06/20 04:24:10;;;;;;;2.65;1.00;;;;;;;14.19;72.52;101558.41;4900840;29;20043;-79
2022/06/20 04:26:49;;;;;;;4.05;0.85;;;;;;;14.19;72.52;101562.84;4900199;29;20047;-80
2022/06/20 04:29:37;;;;;;;3.08;1.17;;;;;;;14.18;72.40;101567.22;4899137;29;20096;-79
2022/06/20 04:32:19;;;;;;;3.83;1.15;;;;;;;14.17;72.52;101564.66;4899917;29;20044;-79
2022/06/20 04:34:52;;;;;;;6.18;1.10;;;;;;;14.18;72.59;101579.56;4886897;29;20251;-79
2022/06/20 04:37:29;;;;;;;2.35;1.02;;;;;;;14.17;72.48;101581.34;4881584;29;20044;-79
2022/06/20 04:40:13;;;;;;;3.00;1.30;;;;;;;14.16;72.88;101582.25;4882550;29;20068;-79
2022/06/20 04:42:56;;;;;;;3.72;1.33;;;;;;;14.18;72.43;101584.81;4881393;29;20041;-79
2022/06/20 04:45:32;;;;;;;6.53;1.45;;;;;;;14.15;72.86;101580.56;4880797;29;20090;-79
2022/06/20 04:48:11;;;;;;;2.53;1.25;;;;;;;14.13;73.09;101571.84;4864732;29;20040;-79
2022/06/20 04:50:41;;;;;;;2.25;1.20;;;;;;;14.13;73.18;101574.47;4895134;29;20359;-79
2022/06/20 04:53:13;;;;;;;2.55;1.10;;;;;;;14.13;73.20;101578.91;4864896;29;20035;-79
2022/06/20 04:55:42;;;;;;;3.00;1.02;;;;;;;14.13;73.03;101581.53;4864487;29;20043;-79
2022/06/20 04:58:12;;;;;;;3.10;1.23;;;;;;;14.13;73.08;101571.84;4864072;29;20025;-79
2022/06/20 05:00:40;;;;;;;4.10;1.38;;;;;;;14.13;73.67;101577.09;4881962;29;20033;-79
2022/06/20 05:03:14;;;;;;;4.35;1.55;;;;;;;14.12;73.38;101578.03;4862974;29;20080;-79
2022/06/20 05:05:46;;;;;;;1.92;1.15;;;;;;;14.13;73.45;101590.28;4897873;29;20064;-79
2022/06/20 05:08:14;;;;;;;7.78;1.60;;;;;;;14.11;73.48;101586.84;4893630;29;20232;-79
2022/06/20 05:10:50;;;;;;;3.75;1.30;;;;;;;14.12;73.39;101585.09;4865128;29;20025;-79
2022/06/20 05:13:32;;;;;;;3.13;1.33;;;;;;;14.12;73.31;101591.22;4864233;29;20101;-79
2022/06/20 05:15:59;;;;;;;3.40;1.48;;;;;;;14.14;73.42;101583.25;4863739;29;20033;-79
2022/06/20 05:18:32;;;;;;;3.92;1.48;;;;;;;14.14;73.20;101585.88;4880650;29;20072;-79
2022/06/20 05:21:02;;;;;;;4.97;1.77;;;;;;;14.15;73.47;101588.47;4881228;29;20367;-80
2022/06/20 05:23:34;;;;;;;2.10;1.40;;;;;;;14.16;73.22;101594.56;4880824;29;20371;-79
2022/06/20 05:26:02;;;;;;;6.85;1.40;;;;;;;14.17;73.09;101596.25;4880472;29;20047;-79
2022/06/20 05:28:32;;;;;;;3.55;1.85;;;;;;;14.16;72.92;101598.06;4880022;29;20036;-79
2022/06/20 05:30:59;;;;;;;4.22;1.67;;;;;;;14.15;73.11;101601.63;4880834;29;20298;-80
2022/06/20 05:33:39;;;;;;;2.92;1.58;;;;;;;14.18;73.43;101600.63;4881409;29;20212;-79
2022/06/20 05:36:15;;;;;;;3.00;1.33;;;;;;;14.18;73.20;101598.84;4879298;29;20033;-79
2022/06/20 05:38:51;;;;;;;5.32;1.45;;;;;;;14.17;73.19;101607.69;4880493;29;20101;-79
2022/06/20 05:41:17;;;;;;;4.50;1.40;;;;;;;14.18;72.98;101603.25;4881364;29;20072;-79
2022/06/20 05:43:43;;;;;;;4.53;1.42;;;;;;;14.17;73.22;101606.81;4863764;29;20345;-79
2022/06/20 05:46:39;;;;;;;6.10;1.63;;;;;;;14.16;73.12;101608.59;4880201;29;20151;-79
2022/06/20 05:49:09;;;;;;;3.45;1.58;;;;;;;14.16;73.07;101608.59;4880782;29;20045;-79
2022/06/20 05:51:38;;;;;;;10.25;2.40;;;;;;;14.15;73.24;101621.81;4880901;29;20043;-79
2022/06/20 05:54:11;;;;;;;3.97;1.80;;;;;;;14.14;73.18;101628.03;4893915;29;20366;-79
2022/06/20 05:56:43;;;;;;;3.50;1.52;;;;;;;14.16;73.36;101629.66;4899955;29;20113;-80
2022/06/20 05:59:28;;;;;;;7.55;1.50;;;;;;;14.17;73.00;101628.75;4864717;29;20280;-78
2022/06/20 06:02:40;;;;;;;5.88;1.95;;;;;;;14.16;73.10;101621.75;4879635;29;20025;-79
2022/06/20 06:05:26;;;;;;;5.15;1.80;;;;;;;14.17;72.97;101627.88;4864794;29;20312;-79
2022/06/20 06:08:19;;;;;;;6.05;2.40;;;;;;;14.17;72.76;101638.41;4880718;29;20297;-79
2022/06/20 06:10:56;;;;;;;5.85;2.10;;;;;;;14.15;72.62;101645.53;4880431;29;20078;-79
2022/06/20 06:13:21;;;;;;;4.78;2.20;;;;;;;14.16;72.59;101640.19;4881574;29;20304;-79
2022/06/20 06:18:57;;;;;;;5.65;2.00;;;;;;;14.21;72.77;101653.19;4886484;29;20337;-79
2022/06/20 06:21:24;;;;;;;8.82;2.53;;;;;;;14.17;72.60;101654.22;4884114;29;20089;-79
2022/06/20 06:23:49;;;;;;;7.15;1.98;;;;;;;14.18;72.57;101651.53;4868149;29;20036;-80
2022/06/20 06:26:17;;;;;;;3.90;2.00;;;;;;;14.18;72.36;101654.16;4884138;29;20354;-78
2022/06/20 06:28:44;;;;;;;7.27;2.13;;;;;;;14.19;72.04;101647.13;4895921;29;20339;-78
2022/06/20 06:31:21;;;;;;;5.45;2.50;;;;;;;14.16;71.90;101650.75;4902196;29;20044;-79
2022/06/20 06:33:54;;;;;;;6.63;2.10;;;;;;;14.17;71.89;101655.09;4858626;29;20029;-78
2022/06/20 06:36:19;;;;;;;4.82;2.00;;;;;;;14.18;72.17;101655.94;4882685;29;20053;-79
2022/06/20 06:38:54;;;;;;;8.50;2.53;;;;;;;14.19;71.89;101660.31;4866727;29;20378;-78
2022/06/20 06:41:34;;;;;;;5.68;2.10;;;;;;;14.18;72.04;101658.59;4883384;29;20048;-79
2022/06/20 06:44:02;;;;;;;4.80;1.80;;;;;;;14.19;72.19;101658.53;4883381;29;20045;-78
2022/06/20 06:46:39;;;;;;;4.78;2.00;;;;;;;14.23;72.11;101671.56;4884628;29;20036;-78
2022/06/20 06:49:38;;;;;;;4.72;1.83;;;;;;;14.22;72.06;101670.69;4869832;29;20100;-78
2022/06/20 06:52:15;;;;;;;7.07;2.42;;;;;;;14.23;72.38;101667.16;4872294;29;20255;-79
2022/06/20 06:55:25;;;;;;;3.80;1.77;;;;;;;14.23;72.17;101676.84;4874755;29;20052;-79
2022/06/20 06:57:59;;;;;;;6.85;2.13;;;;;;;14.27;72.23;101675.78;4847755;29;20190;-79
2022/06/20 07:00:33;;;;;;;4.97;1.77;;;;;;;14.26;72.43;101666.16;4867719;29;20062;-79
2022/06/20 07:03:05;;;;;;;5.72;1.70;;;;;;;14.28;72.62;101670.44;4876150;29;20059;-79
2022/06/20 07:05:36;;;;;;;4.10;1.90;;;;;;;14.29;72.94;101672.16;4884722;29;20332;-79
2022/06/20 07:08:11;;;;;;;5.90;2.25;;;;;;;14.33;72.92;101668.44;4881276;29;20093;-78
2022/06/20 07:10:45;;;;;;;5.25;1.85;;;;;;;14.37;72.98;101671.81;4856917;29;20044;-79
2022/06/20 07:13:15;;;;;;;5.55;2.00;;;;;;;14.39;72.59;101678.75;4870537;29;20343;-79
2022/06/20 07:15:42;;;;;;;7.65;2.15;;;;;;;14.39;72.30;101683.16;4881815;29;20268;-78
2022/06/20 07:18:23;;;;;;;4.43;2.10;;;;;;;14.42;71.44;101682.16;4870546;29;20048;-79
2022/06/20 07:20:50;;;;;;;6.93;1.65;;;;;;;14.42;71.44;101683.00;4866404;29;20033;-79
2022/06/20 07:23:16;;;;;;;6.35;1.88;;;;;;;14.46;71.67;101681.09;4849512;29;20037;-79
2022/06/20 07:25:46;;;;;;;4.28;1.95;;;;;;;14.48;71.17;101687.16;4862027;29;20065;-79
2022/06/20 07:28:18;;;;;;;3.63;1.85;;;;;;;14.47;71.13;101685.47;4876865;29;20035;-78
2022/06/20 07:30:48;;;;;;;5.03;2.00;;;;;;;14.49;71.07;101687.09;4847541;29;20108;-79
2022/06/20 07:33:31;;;;;;;4.85;1.83;;;;;;;14.49;70.91;101683.59;4849718;29;20363;-79
2022/06/20 07:35:59;;;;;;;8.70;2.25;;;;;;;14.48;70.92;101688.03;4874875;29;20032;-82
2022/06/20 07:38:40;;;;;;;5.20;2.10;;;;;;;14.50;71.25;101686.19;4880631;29;20044;-79
2022/06/20 07:41:37;;;;;;;9.68;2.78;;;;;;;14.51;71.28;101690.50;4875915;29;20044;-79
2022/06/20 07:44:06;;;;;;;11.68;2.55;;;;;;;14.53;71.25;101693.94;4880456;29;20041;-79
2022/06/20 07:46:39;;;;;;;6.75;2.72;;;;;;;14.56;70.96;101695.59;4874542;29;20089;-79
2022/06/20 07:49:11;;;;;;;5.80;2.15;;;;;;;14.60;71.03;101694.56;4871910;29;20025;-79
2022/06/20 07:51:40;;;;;;;6.47;2.30;;;;;;;14.64;71.17;101687.38;4874174;29;20096;-79
2022/06/20 07:54:16;;;;;;;6.72;1.90;;;;;;;14.69;71.22;101699.44;4871040;29;20188;-79
2022/06/20 07:56:50;;;;;;;4.10;2.05;;;;;;;14.71;70.90;101697.56;4867918;29;20071;-79
2022/06/20 07:59:42;;;;;;;5.15;2.00;;;;;;;14.73;70.96;101698.34;4873800;29;20069;-79
2022/06/20 08:02:12;;;;;;;6.95;2.05;;;;;;;14.75;70.46;101693.03;4854994;29;20241;-79
2022/06/20 08:04:38;;;;;;;6.63;2.33;;;;;;;14.78;70.08;101687.63;4867196;29;20060;-79
2022/06/20 08:07:24;;;;;;;8.05;2.47;;;;;;;14.79;70.16;101694.63;4880012;29;20044;-79
2022/06/20 08:10:02;;;;;;;6.75;1.83;;;;;;;14.78;69.54;101693.75;4872807;29;20025;-79
2022/06/20 08:12:37;;;;;;;3.03;1.48;;;;;;;14.81;69.46;101689.25;4873065;29;20075;-79
2022/06/20 08:15:11;;;;;;;8.88;2.17;;;;;;;14.83;68.13;101695.34;4880010;29;20045;-79
2022/06/20 08:17:37;;;;;;;7.03;1.65;;;;;;;14.81;68.07;101699.81;4873649;29;20087;-78
2022/06/20 08:20:04;;;;;;;6.68;2.15;;;;;;;14.81;68.64;101698.03;4852563;29;20024;-79
2022/06/20 08:22:53;;;;;;;5.38;1.92;;;;;;;14.83;68.18;101697.97;4831030;29;20045;-79
2022/06/20 08:25:22;;;;;;;5.43;2.00;;;;;;;14.84;68.45;101707.59;4861635;29;20040;-79
2022/06/20 08:28:03;;;;;;;3.90;1.77;;;;;;;14.84;67.83;101699.69;4877066;29;20036;-79
2022/06/20 08:30:37;;;;;;;9.20;1.85;;;;;;;14.88;68.02;101709.16;4877471;29;20378;-79
2022/06/20 08:33:22;;;;;;;5.35;1.92;;;;;;;14.88;68.28;101704.75;4876639;29;20093;-79
2022/06/20 08:35:52;;;;;;;6.13;1.85;;;;;;;14.90;68.68;101697.63;4877449;29;20411;-80
2022/06/20 08:38:34;;;;;;;4.45;1.40;;;;;;;14.92;69.18;101706.31;4856621;29;20069;-79
2022/06/20 08:41:28;;;;;;;6.22;1.90;;;;;;;14.91;68.24;101709.88;4879591;29;20078;-79
2022/06/20 08:44:15;;;;;;;5.43;1.63;;;;;;;14.93;66.92;101708.00;4862796;29;20033;-79
2022/06/20 08:46:49;;;;;;;7.95;1.70;;;;;;;14.96;66.46;101709.69;4878137;29;20040;-79
2022/06/20 08:49:29;;;;;;;4.38;1.58;;;;;;;15.00;66.64;101719.16;4876837;29;20562;-79
2022/06/20 08:52:20;;;;;;;3.25;1.27;;;;;;;15.02;64.80;101719.09;4877537;29;20025;-79
2022/06/20 08:54:51;;;;;;;2.55;1.27;;;;;;;15.08;64.57;101726.72;4858609;29;20037;-79
2022/06/20 08:57:30;;;;;;;6.38;1.45;;;;;;;15.09;64.48;101726.66;4876299;29;20360;-78
2022/06/20 09:00:14;;;;;;;4.30;1.80;;;;;;;15.13;64.91;101730.00;4859952;29;20031;-79
2022/06/20 09:02:58;;;;;;;6.47;2.05;;;;;;;15.18;64.52;101727.16;4878254;29;20267;-79
2022/06/20 09:05:35;;;;;;;4.30;1.70;;;;;;;15.22;64.68;101729.59;4876798;29;20097;-79
2022/06/20 09:08:18;;;;;;;4.90;1.42;;;;;;;15.26;64.31;101723.25;4875965;29;20036;-79
2022/06/20 09:11:09;;;;;;;3.28;1.17;;;;;;;15.31;65.41;101730.94;4862618;29;20054;-79
2022/06/20 09:13:50;;;;;;;3.35;1.40;;;;;;;15.34;64.63;101733.44;4875756;29;20344;-78
2022/06/20 09:16:36;;;;;;;11.85;2.20;;;;;;;15.37;64.25;101738.56;4876383;29;20089;-79
2022/06/20 09:19:29;;;;;;;6.05;1.95;;;;;;;15.41;64.38;101734.88;4875509;29;20057;-79
2022/06/20 09:22:07;;;;;;;5.38;1.77;;;;;;;15.47;63.70;101739.84;4859658;29;20446;-79
2022/06/20 09:24:40;;;;;;;4.35;1.50;;;;;;;15.49;62.01;101748.56;4872896;29;20045;-78
2022/06/20 09:27:18;;;;;;;6.30;1.90;;;;;;;15.52;63.29;101743.13;4859137;29;20323;-79
2022/06/20 09:30:08;;;;;;;8.35;1.88;;;;;;;15.56;63.54;101743.84;4878321;29;20259;-79
2022/06/20 09:32:52;;;;;;;3.65;1.92;;;;;;;15.58;63.67;101749.06;4859598;29;20363;-79
2022/06/20 09:35:36;;;;;;;8.80;2.47;;;;;;;15.62;62.46;101740.06;4855590;29;20437;-78
2022/06/20 09:38:20;;;;;;;10.38;1.95;;;;;;;15.65;63.43;101755.78;4876484;29;20040;-79
2022/06/20 09:41:10;;;;;;;6.53;2.60;;;;;;;15.67;63.32;101741.56;4863391;29;20031;-79
2022/06/20 09:43:49;;;;;;;6.35;1.42;;;;;;;15.68;62.56;101737.13;4878395;29;20044;-79
2022/06/20 09:46:27;;;;;;;7.45;1.83;;;;;;;15.71;63.40;101744.91;4873598;29;20025;-79
2022/06/20 09:48:59;;;;;;;6.05;2.20;;;;;;;15.74;63.07;101748.28;4873752;29;20044;-80
2022/06/20 09:51:30;;;;;;;7.18;2.42;;;;;;;15.78;62.59;101754.28;4880668;29;20044;-79
2022/06/20 09:54:04;;;;;;;11.88;1.75;;;;;;;15.81;61.01;101759.44;4879951;29;20041;-79
2022/06/20 09:56:57;;;;;;;4.45;1.67;;;;;;;15.84;60.76;101758.41;4871200;29;20055;-79
2022/06/20 09:59:51;;;;;;;5.50;1.58;;;;;;;15.87;62.82;101750.34;4837013;29;20055;-79
2022/06/20 10:02:41;;;;;;;5.18;1.63;;;;;;;15.86;61.54;101752.13;4866996;29;20064;-79
2022/06/20 10:05:47;;;;;;;9.07;1.80;;;;;;;15.89;60.15;101756.41;4864686;29;20036;-80
2022/06/20 10:08:18;;;;;;;6.78;2.60;;;;;;;15.91;61.28;101757.19;4872206;29;20037;-79
2022/06/20 10:11:14;;;;;;;7.40;2.58;;;;;;;15.95;61.45;101763.19;4874411;29;20041;-78
2022/06/20 10:13:48;;;;;;;8.60;2.00;;;;;;;15.99;62.09;101768.25;4836715;29;1167682;-79
2022/06/20 10:16:22;;;;;;;6.05;2.10;;;;;;;16.02;60.04;101767.22;4859659;29;20040;-79
2022/06/20 10:19:07;;;;;;;4.65;1.88;;;;;;;16.06;60.77;101763.50;4866701;29;20026;-79
2022/06/20 10:22:05;;;;;;;5.13;1.80;;;;;;;16.13;61.38;101770.19;4863479;29;20037;-79
2022/06/20 10:24:57;;;;;;;8.00;1.75;;;;;;;16.16;59.17;101780.63;4877336;29;20172;-79
2022/06/20 10:27:57;;;;;;;4.97;1.38;;;;;;;16.17;58.24;101785.00;4865971;29;20089;-79
2022/06/20 10:30:48;;;;;;;4.68;1.60;;;;;;;16.19;59.21;101798.09;4873910;29;20029;-78
2022/06/20 10:33:45;;;;;;;8.80;1.80;;;;;;;16.19;59.70;101798.09;4867109;29;20133;-78
2022/06/20 10:36:36;;;;;;;6.25;2.03;;;;;;;16.25;60.93;101808.38;4868563;29;20198;-79
2022/06/20 10:39:11;;;;;;;5.25;2.00;;;;;;;16.25;61.27;101808.38;4877240;29;20256;-78
2022/06/20 10:42:03;;;;;;;8.00;2.00;;;;;;;16.23;61.46;101800.53;4862593;29;20100;-79
2022/06/20 10:45:03;;;;;;;8.27;2.00;;;;;;;16.20;60.97;101805.13;4879211;29;20068;-79
2022/06/20 10:47:57;;;;;;;6.25;2.15;;;;;;;16.22;62.68;101808.53;4882553;29;20037;-79
2022/06/20 10:50:40;;;;;;;8.02;2.40;;;;;;;16.22;62.35;101811.19;4871074;29;20048;-79
2022/06/20 10:53:23;;;;;;;8.75;1.95;;;;;;;16.21;63.12;101810.34;4879653;29;20028;-78
2022/06/20 10:56:22;;;;;;;12.55;2.25;;;;;;;16.23;62.63;101810.25;4883920;29;20072;-79
2022/06/20 10:59:05;;;;;;;7.25;1.80;;;;;;;16.26;62.99;101823.31;4879199;29;20029;-79
2022/06/20 11:01:37;;;;;;;6.95;1.70;;;;;;;16.27;62.38;101814.47;4880731;29;20029;-79
2022/06/20 11:04:20;;;;;;;5.35;1.90;;;;;;;16.29;61.62;101815.22;4882426;29;20061;-79
2022/06/20 11:07:00;;;;;;;8.15;1.98;;;;;;;16.30;59.52;101820.44;4880796;29;20168;-79
2022/06/20 11:09:40;;;;;;;3.33;1.40;;;;;;;16.33;58.80;101821.22;4874834;29;20220;-79
2022/06/20 11:12:22;;;;;;;5.82;1.30;;;;;;;16.36;58.01;101821.09;4863486;29;20033;-79
2022/06/20 11:15:20;;;;;;;6.93;1.80;;;;;;;16.39;58.17;101831.47;4881804;29;20036;-79
2022/06/20 11:18:00;;;;;;;3.97;1.77;;;;;;;16.39;57.98;101835.00;4881341;29;20308;-79
2022/06/20 11:20:34;;;;;;;2.22;1.10;;;;;;;16.43;58.97;101828.63;4882396;29;20200;-79
2022/06/20 11:23:18;;;;;;;3.03;1.67;;;;;;;16.47;58.17;101831.97;4883312;29;20028;-79
2022/06/20 11:26:07;;;;;;;4.22;1.40;;;;;;;16.41;57.83;101842.84;4883329;29;20037;-79
2022/06/20 11:28:45;;;;;;;6.57;1.60;;;;;;;16.35;58.76;101837.88;4866351;29;20025;-79
2022/06/20 11:31:37;;;;;;;4.82;1.40;;;;;;;16.36;57.98;101836.94;4879007;29;20029;-79
2022/06/20 11:34:32;;;;;;;7.30;1.38;;;;;;;16.40;58.38;101842.00;4858046;29;20041;-79
2022/06/20 11:37:16;;;;;;;4.30;1.40;;;;;;;16.41;58.20;101846.34;4881197;29;20044;-79
2022/06/20 11:39:59;;;;;;;9.07;1.75;;;;;;;16.39;58.86;101848.22;4878441;29;20096;-79
2022/06/20 11:42:30;;;;;;;3.95;1.67;;;;;;;16.40;58.86;101851.72;4881554;29;20028;-80
2022/06/20 11:44:58;;;;;;;6.05;1.92;;;;;;;16.39;59.37;101845.59;4881274;29;20339;-79
2022/06/20 11:47:24;;;;;;;7.40;1.73;;;;;;;16.40;58.82;101843.78;4877303;29;20320;-79
2022/06/20 11:50:24;;;;;;;5.65;1.88;;;;;;;16.42;60.08;101853.34;4858565;29;20237;-80
2022/06/20 11:53:06;;;;;;;3.00;1.60;;;;;;;16.42;60.73;101849.84;4848552;29;20069;-79
2022/06/20 11:55:50;;;;;;;5.75;1.73;;;;;;;16.45;61.90;101858.47;4874740;29;20081;-79
2022/06/20 11:58:33;;;;;;;8.15;2.67;;;;;;;16.45;61.79;101849.72;4875215;29;20037;-79
2022/06/20 12:01:08;;;;;;;10.30;2.08;;;;;;;16.48;61.39;101862.75;4871711;29;20112;-80
2022/06/20 12:04:03;;;;;;;6.00;1.50;;;;;;;16.47;60.67;101864.56;4880169;29;20065;-79
2022/06/20 12:06:35;;;;;;;9.57;2.15;;;;;;;16.48;61.67;101866.28;4859139;29;20048;-79
2022/06/20 12:09:11;;;;;;;8.25;2.40;;;;;;;16.51;61.99;101860.81;4882518;29;20041;-79
2022/06/20 12:11:41;;;;;;;12.57;2.38;;;;;;;16.53;62.08;101851.97;4867786;29;20030;-79
2022/06/20 12:14:25;;;;;;;6.20;2.10;;;;;;;16.53;62.02;101866.03;4865136;29;20072;-79
2022/06/20 12:17:29;;;;;;;9.63;2.17;;;;;;;16.54;61.32;101867.75;4880174;29;20344;-79